High Meadows, Illinois
Current Conditions -  °F | °C
As of 12:54 AM on Friday 28 Nov 2014 (Local Time) from KPIA Reporting Station
Overcast Overcast  
Wind Chill: 16°   Ceiling: 8000
Heat Index: 16°   Visibility: 10mi
Dew Point:   Wind: 0mph
Humidity: 71%   Direction: NA
Pressure: 30.4"   Gusts: NA
Location:  40.6465°N, 89.6859°W
Report Text: KPIA 280654Z 00000KT 10SM OVC080 M09/M13 A3040 RMK AO2 SLP305 T10891133
Loading
Personal Weather Stations






























Interactive Weather Map New forecast layout! Learn more

10-Day Weather Forecast

Advertisements
Track Severe Weather on mobile